createdAt,value
2023-05-23T00:02:15.790Z,12.33
2023-05-23T00:04:43.086Z,13.07
2023-05-23T00:07:10.341Z,11.97
2023-05-23T00:09:37.159Z,13.07
2023-05-23T00:12:04.292Z,12.13
2023-05-23T00:14:34.005Z,12.23
2023-05-23T00:17:05.322Z,11.97
2023-05-23T00:19:32.314Z,12.13
2023-05-23T00:21:59.179Z,12.13
2023-05-23T00:24:26.083Z,11.80
2023-05-23T00:26:52.973Z,12.10
2023-05-23T00:29:19.893Z,11.83
2023-05-23T00:31:47.380Z,12.10
2023-05-23T00:34:17.927Z,10.93
2023-05-23T00:36:47.761Z,11.60
2023-05-23T00:39:19.705Z,11.87
2023-05-23T00:41:52.691Z,11.37
2023-05-23T00:44:21.369Z,12.60
2023-05-23T00:46:53.382Z,11.60
2023-05-23T00:49:21.262Z,10.80
2023-05-23T00:51:49.875Z,11.20
2023-05-23T00:54:21.075Z,11.20
2023-05-23T00:56:48.789Z,12.10
2023-05-23T00:59:16.384Z,11.43
2023-05-23T01:01:47.762Z,11.30
2023-05-23T01:04:17.007Z,12.23
2023-05-23T01:06:46.990Z,11.97
2023-05-23T01:09:18.958Z,10.80
2023-05-23T01:11:49.554Z,11.70
2023-05-23T01:14:23.979Z,12.40
2023-05-23T01:17:01.919Z,11.30
2023-05-23T01:20:02.773Z,11.57
2023-05-23T01:23:11.844Z,11.80
2023-05-23T01:25:40.118Z,12.33
2023-05-23T01:28:10.973Z,12.20
2023-05-23T01:30:41.947Z,12.73
2023-05-23T01:33:11.846Z,12.60
2023-05-23T01:35:40.126Z,12.50
2023-05-23T01:38:07.144Z,11.83
2023-05-23T01:40:34.018Z,11.53
2023-05-23T01:43:01.184Z,11.80
2023-05-23T01:45:29.419Z,12.37
2023-05-23T01:47:57.043Z,13.00
2023-05-23T01:50:25.164Z,11.97
2023-05-23T01:52:53.489Z,12.37
2023-05-23T01:55:22.879Z,12.03
2023-05-23T01:57:56.798Z,11.70
2023-05-23T02:00:24.378Z,11.67
2023-05-23T02:02:51.509Z,12.57
2023-05-23T02:05:18.480Z,12.90
2023-05-23T02:07:45.387Z,12.17
2023-05-23T02:10:12.295Z,12.37
2023-05-23T02:12:39.227Z,13.20
2023-05-23T02:15:07.743Z,12.80
2023-05-23T02:17:34.754Z,13.20
2023-05-23T02:20:01.676Z,12.97
2023-05-23T02:22:28.481Z,13.30
2023-05-23T02:24:55.377Z,12.80
2023-05-23T02:27:22.207Z,12.97
2023-05-23T02:29:49.050Z,13.10
2023-05-23T02:32:15.877Z,14.20
2023-05-23T02:34:46.642Z,14.90
2023-05-23T02:37:17.027Z,14.37
2023-05-23T02:39:44.298Z,14.47
2023-05-23T02:42:11.119Z,14.43
2023-05-23T02:44:37.956Z,14.00
2023-05-23T02:47:04.995Z,14.50
2023-05-23T02:49:31.870Z,14.57
2023-05-23T02:51:58.710Z,14.87
2023-05-23T02:54:25.568Z,15.37
2023-05-23T02:56:53.721Z,14.43
2023-05-23T02:59:22.187Z,15.37
2023-05-23T03:01:49.289Z,15.53
2023-05-23T03:04:16.348Z,14.63
2023-05-23T03:06:45.286Z,14.53
2023-05-23T03:09:12.317Z,15.03
2023-05-23T03:11:39.326Z,15.00
2023-05-23T03:14:06.300Z,15.03
2023-05-23T03:16:33.325Z,14.77
2023-05-23T03:19:00.891Z,14.73
2023-05-23T03:21:27.931Z,15.40
2023-05-23T03:23:54.933Z,16.07
2023-05-23T03:26:22.235Z,15.20
2023-05-23T03:28:50.398Z,17.83
2023-05-23T03:31:17.809Z,16.97
2023-05-23T03:33:44.772Z,15.60
2023-05-23T03:36:11.792Z,16.27
2023-05-23T03:38:38.769Z,15.80
2023-05-23T03:41:05.840Z,16.43
2023-05-23T03:43:32.801Z,16.90
2023-05-23T03:45:59.886Z,17.03
2023-05-23T03:48:27.059Z,16.63
2023-05-23T03:50:54.051Z,16.50
2023-05-23T03:53:21.075Z,15.67
2023-05-23T03:55:48.060Z,17.93
2023-05-23T03:58:15.064Z,16.80
2023-05-23T04:00:42.090Z,16.10
2023-05-23T04:03:10.906Z,15.70
2023-05-23T04:05:37.981Z,16.53
2023-05-23T04:08:05.183Z,17.40
2023-05-23T04:10:32.172Z,17.00
2023-05-23T04:12:59.166Z,15.90
2023-05-23T04:15:26.154Z,16.60
2023-05-23T04:17:53.229Z,17.43
2023-05-23T04:20:20.346Z,17.30
2023-05-23T04:22:47.219Z,16.90
2023-05-23T04:25:14.161Z,17.57
2023-05-23T04:27:41.045Z,16.20
2023-05-23T04:30:10.213Z,17.40
2023-05-23T04:32:37.916Z,18.30
2023-05-23T04:35:04.983Z,16.60
2023-05-23T04:37:33.069Z,17.97
2023-05-23T04:40:00.128Z,18.33
2023-05-23T04:42:27.514Z,18.10
2023-05-23T04:44:56.928Z,18.20
2023-05-23T04:47:24.989Z,17.80
2023-05-23T04:49:54.051Z,18.03
2023-05-23T04:52:21.321Z,19.63
2023-05-23T04:54:48.882Z,18.83
2023-05-23T04:57:15.923Z,18.40
2023-05-23T04:59:43.203Z,17.63
2023-05-23T05:02:10.068Z,18.40
2023-05-23T05:04:36.975Z,17.90
2023-05-23T05:07:04.305Z,18.60
2023-05-23T05:09:34.110Z,18.17
2023-05-23T05:12:00.922Z,18.70
2023-05-23T05:14:27.981Z,16.60
2023-05-23T05:16:55.090Z,18.50
2023-05-23T05:19:22.073Z,17.40
2023-05-23T05:21:49.039Z,17.80
2023-05-23T05:24:16.003Z,17.73
2023-05-23T05:26:43.224Z,17.80
2023-05-23T05:29:10.111Z,17.33
2023-05-23T05:31:38.049Z,18.57
2023-05-23T05:34:05.286Z,17.83
2023-05-23T05:36:32.732Z,16.63
2023-05-23T05:38:59.792Z,16.87
2023-05-23T05:41:27.028Z,17.87
2023-05-23T05:43:54.130Z,18.20
2023-05-23T05:46:21.299Z,17.40
2023-05-23T05:48:48.278Z,17.63
2023-05-23T05:51:15.123Z,17.00
2023-05-23T05:53:42.001Z,14.37
2023-05-23T05:56:09.459Z,15.63
2023-05-23T05:58:36.443Z,17.30
2023-05-23T06:01:03.844Z,16.43
2023-05-23T06:03:31.002Z,17.83
2023-05-23T06:05:58.052Z,17.63
2023-05-23T06:08:25.059Z,17.17
2023-05-23T06:10:52.082Z,17.20
2023-05-23T06:13:18.922Z,16.73
2023-05-23T06:15:48.880Z,18.20
2023-05-23T06:18:15.906Z,18.87
2023-05-23T06:20:43.014Z,18.50
2023-05-23T06:23:10.134Z,17.53
2023-05-23T06:25:37.018Z,19.10
2023-05-23T06:28:03.842Z,17.57
2023-05-23T06:30:31.518Z,19.03
2023-05-23T06:32:58.626Z,19.20
2023-05-23T06:35:25.657Z,18.63
2023-05-23T06:37:52.570Z,19.33
2023-05-23T06:40:19.416Z,19.13
2023-05-23T06:42:46.352Z,18.83
2023-05-23T06:45:15.038Z,20.33
2023-05-23T06:47:48.235Z,20.17
2023-05-23T06:50:15.209Z,18.80
2023-05-23T06:52:42.983Z,19.97
2023-05-23T06:55:10.117Z,21.00
2023-05-23T06:57:36.970Z,20.00
2023-05-23T07:00:04.157Z,20.43
2023-05-23T07:02:31.217Z,20.07
2023-05-23T07:04:58.170Z,19.73
2023-05-23T07:07:25.149Z,20.40
2023-05-23T07:09:52.474Z,18.53
2023-05-23T07:12:19.429Z,20.50
2023-05-23T07:14:46.270Z,20.30
2023-05-23T07:17:13.276Z,18.80
2023-05-23T07:19:40.157Z,19.00
2023-05-23T07:22:07.057Z,20.10
2023-05-23T07:24:33.948Z,19.17
2023-05-23T07:27:00.916Z,19.50
2023-05-23T07:29:27.903Z,21.53
2023-05-23T07:31:54.876Z,20.60
2023-05-23T07:34:21.832Z,21.37
2023-05-23T07:36:50.426Z,21.80
2023-05-23T07:39:22.175Z,20.67
2023-05-23T07:41:50.184Z,20.10
2023-05-23T07:44:19.886Z,21.23
2023-05-23T07:46:48.161Z,20.57
2023-05-23T07:49:15.010Z,21.10
2023-05-23T07:51:41.916Z,19.37
2023-05-23T07:54:08.797Z,20.00
2023-05-23T07:56:35.737Z,21.93
2023-05-23T07:59:02.602Z,20.63
2023-05-23T08:01:29.613Z,20.30
2023-05-23T08:03:56.543Z,22.20
2023-05-23T08:06:23.423Z,20.53
2023-05-23T08:08:51.148Z,22.50
2023-05-23T08:11:18.003Z,20.43
2023-05-23T08:13:44.939Z,22.83
2023-05-23T08:16:11.787Z,21.80
2023-05-23T08:18:38.873Z,22.23
2023-05-23T08:21:05.789Z,21.30
2023-05-23T08:23:32.663Z,21.70
2023-05-23T08:25:59.516Z,20.80
2023-05-23T08:28:26.973Z,22.73
2023-05-23T08:30:54.124Z,21.80
2023-05-23T08:33:21.006Z,22.57
2023-05-23T08:35:47.903Z,22.27
2023-05-23T08:38:15.030Z,21.40
2023-05-23T08:40:49.244Z,21.03
2023-05-23T08:43:16.660Z,20.90
2023-05-23T08:45:44.688Z,19.73
2023-05-23T08:48:15.433Z,20.77
2023-05-23T08:50:46.197Z,21.23
2023-05-23T08:53:20.393Z,21.40
2023-05-23T08:55:48.889Z,20.30
2023-05-23T08:58:16.195Z,21.33
2023-05-23T09:00:44.236Z,22.47
2023-05-23T09:03:12.496Z,20.80
2023-05-23T09:05:39.616Z,20.57
2023-05-23T09:08:06.555Z,21.23
2023-05-23T09:10:33.453Z,21.00
2023-05-23T09:13:01.458Z,19.23
2023-05-23T09:15:29.217Z,21.57
2023-05-23T09:18:03.795Z,22.07
2023-05-23T09:20:31.140Z,21.90
2023-05-23T09:22:58.051Z,21.03
2023-05-23T09:25:24.909Z,20.43
2023-05-23T09:27:53.420Z,20.70
2023-05-23T09:30:20.336Z,20.53
2023-05-23T09:33:02.064Z,18.67
2023-05-23T09:35:31.134Z,19.27
2023-05-23T09:38:02.016Z,20.27
2023-05-23T09:40:32.661Z,20.40
2023-05-23T09:43:04.499Z,21.20
2023-05-23T09:45:32.277Z,19.17
2023-05-23T09:47:59.385Z,21.17
2023-05-23T09:50:33.455Z,20.00
2023-05-23T09:53:01.573Z,19.47
2023-05-23T09:55:28.567Z,21.20
2023-05-23T09:57:57.468Z,22.57
2023-05-23T10:00:25.477Z,21.57
2023-05-23T10:03:11.229Z,22.47
2023-05-23T10:05:53.390Z,21.23
2023-05-23T10:08:38.844Z,23.80
2023-05-23T10:11:14.760Z,24.33
2023-05-23T10:13:49.148Z,23.70
2023-05-23T10:16:29.003Z,22.60
2023-05-23T10:18:59.453Z,22.53
2023-05-23T10:21:46.378Z,21.87
2023-05-23T10:24:14.233Z,23.13
2023-05-23T10:26:41.490Z,22.70
2023-05-23T10:29:08.494Z,21.87
2023-05-23T10:31:36.887Z,20.73
2023-05-23T10:34:13.805Z,21.33
2023-05-23T10:37:02.322Z,21.20
2023-05-23T10:39:53.748Z,20.60
2023-05-23T10:42:43.610Z,18.23
2023-05-23T10:45:17.920Z,19.20
2023-05-23T10:47:44.965Z,18.07
2023-05-23T10:50:14.938Z,17.37
2023-05-23T10:52:43.214Z,15.97
2023-05-23T10:55:22.563Z,16.37
2023-05-23T10:58:29.716Z,14.30
2023-05-23T11:00:57.800Z,15.80
2023-05-23T11:03:52.931Z,14.40
2023-05-23T11:06:43.166Z,13.93
2023-05-23T11:09:19.671Z,14.07
2023-05-23T11:12:05.425Z,14.93
2023-05-23T11:14:35.209Z,14.43
2023-05-23T11:17:18.100Z,14.40
2023-05-23T11:20:07.426Z,13.83
2023-05-23T11:22:36.076Z,13.00
2023-05-23T11:25:08.821Z,13.97
2023-05-23T11:27:38.401Z,15.53
2023-05-23T11:30:15.248Z,15.27
2023-05-23T11:32:53.121Z,14.20
2023-05-23T11:35:21.513Z,15.50
2023-05-23T11:37:49.065Z,15.87
2023-05-23T11:40:27.388Z,14.60
2023-05-23T11:42:55.301Z,14.30
2023-05-23T11:45:26.464Z,15.40
2023-05-23T11:47:53.641Z,15.27
2023-05-23T11:50:20.791Z,14.97
2023-05-23T11:52:51.804Z,13.00
2023-05-23T11:55:22.634Z,13.17
2023-05-23T11:57:50.398Z,12.97
2023-05-23T12:00:18.909Z,14.10
2023-05-23T12:02:47.770Z,12.47
2023-05-23T12:05:15.225Z,11.80
2023-05-23T12:07:47.049Z,12.30
2023-05-23T12:10:18.083Z,13.50
2023-05-23T12:12:45.424Z,13.23
2023-05-23T12:15:13.604Z,12.70
2023-05-23T12:17:46.963Z,12.37
2023-05-23T12:20:14.337Z,10.80
2023-05-23T12:22:42.472Z,11.77
2023-05-23T12:25:10.923Z,11.90
2023-05-23T12:27:40.371Z,12.63
2023-05-23T12:30:13.534Z,12.57
2023-05-23T12:32:44.856Z,12.67
2023-05-23T12:35:14.061Z,13.20
2023-05-23T12:37:49.999Z,12.60
2023-05-23T12:40:18.425Z,12.37
2023-05-23T12:42:55.151Z,12.87
2023-05-23T12:45:36.843Z,10.90
2023-05-23T12:48:06.167Z,12.00
2023-05-23T12:50:33.481Z,12.20
2023-05-23T12:53:00.520Z,13.47
2023-05-23T12:55:27.369Z,12.57
2023-05-23T12:57:54.849Z,12.37
2023-05-23T13:00:22.169Z,11.73
2023-05-23T13:02:50.453Z,11.77
2023-05-23T13:05:17.590Z,11.63
2023-05-23T13:07:44.461Z,10.70
2023-05-23T13:10:11.510Z,11.83
2023-05-23T13:12:38.754Z,11.80
2023-05-23T13:15:07.455Z,11.60
2023-05-23T13:17:34.470Z,13.27
2023-05-23T13:20:01.932Z,12.10
2023-05-23T13:22:29.376Z,11.93
2023-05-23T13:24:56.502Z,12.10
2023-05-23T13:27:23.308Z,11.73
2023-05-23T13:29:50.373Z,11.77
2023-05-23T13:32:17.320Z,11.60
2023-05-23T13:34:44.208Z,12.10
2023-05-23T13:37:11.234Z,13.03
2023-05-23T13:39:38.133Z,11.40
2023-05-23T13:42:05.200Z,10.97
2023-05-23T13:44:32.030Z,11.80
2023-05-23T13:47:12.952Z,11.67
2023-05-23T13:49:41.532Z,11.60
2023-05-23T13:52:08.389Z,10.73
2023-05-23T13:54:35.231Z,12.23
2023-05-23T13:57:02.527Z,11.30
2023-05-23T13:59:29.437Z,11.20
2023-05-23T14:01:56.327Z,10.73
2023-05-23T14:04:23.400Z,10.33
2023-05-23T14:06:51.109Z,11.13
2023-05-23T14:09:19.430Z,11.40
2023-05-23T14:11:47.121Z,10.87
2023-05-23T14:14:13.999Z,10.80
2023-05-23T14:16:41.102Z,10.70
2023-05-23T14:19:08.181Z,10.60
2023-05-23T14:21:35.164Z,10.67
2023-05-23T14:24:03.122Z,10.67
2023-05-23T14:26:30.359Z,10.27
2023-05-23T14:28:57.270Z,10.90
2023-05-23T14:31:24.474Z,10.33
2023-05-23T14:33:51.504Z,11.03
2023-05-23T14:36:18.455Z,10.40
2023-05-23T14:38:46.266Z,11.13
2023-05-23T14:41:14.347Z,10.93
2023-05-23T14:43:41.251Z,9.40
2023-05-23T14:46:08.916Z,10.10
2023-05-23T14:48:35.938Z,10.70
2023-05-23T14:51:02.902Z,9.90
2023-05-23T14:53:29.797Z,10.63
2023-05-23T14:55:56.866Z,10.80
2023-05-23T14:58:25.583Z,10.77
2023-05-23T15:00:53.134Z,10.53
2023-05-23T15:03:20.260Z,10.90
2023-05-23T15:05:49.027Z,10.47
2023-05-23T15:08:18.267Z,10.17
2023-05-23T15:10:45.942Z,9.63
2023-05-23T15:13:12.835Z,10.53
2023-05-23T15:15:41.272Z,10.23
2023-05-23T15:18:10.139Z,10.03
2023-05-23T15:20:37.419Z,11.17
2023-05-23T15:23:05.329Z,11.20
2023-05-23T15:25:48.131Z,11.53
2023-05-23T15:28:16.688Z,11.43
2023-05-23T15:30:44.049Z,11.40
2023-05-23T15:33:12.950Z,10.20
2023-05-23T15:35:40.308Z,11.37
2023-05-23T15:38:07.448Z,10.67
2023-05-23T15:40:34.283Z,11.20
2023-05-23T15:43:01.214Z,10.93
2023-05-23T15:45:28.150Z,10.20
2023-05-23T15:47:55.171Z,9.70
2023-05-23T15:50:22.090Z,9.30
2023-05-23T15:52:49.071Z,9.00
2023-05-23T15:55:15.906Z,9.27
2023-05-23T15:57:43.112Z,8.60
2023-05-23T16:00:10.554Z,8.73
2023-05-23T16:02:37.484Z,8.50
2023-05-23T16:05:04.574Z,8.20
2023-05-23T16:07:31.590Z,9.23
2023-05-23T16:09:58.502Z,8.37
2023-05-23T16:12:25.433Z,9.70
2023-05-23T16:14:52.467Z,9.03
2023-05-23T16:17:19.465Z,9.20
2023-05-23T16:19:46.415Z,9.23
2023-05-23T16:22:13.506Z,8.20
2023-05-23T16:24:40.504Z,8.70
2023-05-23T16:27:07.375Z,9.50
2023-05-23T16:29:34.388Z,9.00
2023-05-23T16:32:01.477Z,7.90
2023-05-23T16:34:28.482Z,7.27
2023-05-23T16:36:55.472Z,7.90
2023-05-23T16:39:22.546Z,6.50
2023-05-23T16:41:49.504Z,6.47
2023-05-23T16:44:16.500Z,6.97
2023-05-23T16:46:43.486Z,6.37
2023-05-23T16:49:11.468Z,6.10
2023-05-23T16:51:38.433Z,5.63
2023-05-23T16:54:05.508Z,6.10
2023-05-23T16:56:32.328Z,6.37
2023-05-23T16:58:59.269Z,5.10
2023-05-23T17:01:26.282Z,5.93
2023-05-23T17:03:53.679Z,6.37
2023-05-23T17:06:20.933Z,5.00
2023-05-23T17:08:47.842Z,5.67
2023-05-23T17:11:14.895Z,5.53
2023-05-23T17:13:41.812Z,5.00
2023-05-23T17:16:08.744Z,4.93
2023-05-23T17:18:36.333Z,5.27
2023-05-23T17:21:03.375Z,4.80
2023-05-23T17:23:30.337Z,4.80
2023-05-23T17:25:57.283Z,4.10
2023-05-23T17:28:24.219Z,4.67
2023-05-23T17:30:54.093Z,3.97
2023-05-23T17:33:21.347Z,4.60
2023-05-23T17:35:48.360Z,4.27
2023-05-23T17:38:15.895Z,4.00
2023-05-23T17:40:42.985Z,3.90
2023-05-23T17:43:10.261Z,4.47
2023-05-23T17:45:37.165Z,4.60
2023-05-23T17:48:04.322Z,3.97
2023-05-23T17:50:31.522Z,4.17
2023-05-23T17:52:59.171Z,4.20
2023-05-23T17:55:26.474Z,3.60
2023-05-23T17:57:53.372Z,4.37
2023-05-23T18:00:21.264Z,3.93
2023-05-23T18:02:48.388Z,3.80
2023-05-23T18:05:15.796Z,4.20
2023-05-23T18:07:42.676Z,4.47
2023-05-23T18:10:09.816Z,3.70
2023-05-23T18:12:36.938Z,3.87
2023-05-23T18:15:04.133Z,4.13
2023-05-23T18:17:31.255Z,3.87
2023-05-23T18:19:58.416Z,4.37
2023-05-23T18:22:25.647Z,4.63
2023-05-23T18:24:52.524Z,3.83
2023-05-23T18:27:19.437Z,3.70
2023-05-23T18:29:46.312Z,3.90
2023-05-23T18:32:14.610Z,3.97
2023-05-23T18:34:41.557Z,3.60
2023-05-23T18:37:08.550Z,3.60
2023-05-23T18:39:35.448Z,3.97
2023-05-23T18:42:02.300Z,3.60
2023-05-23T18:44:29.136Z,3.60
2023-05-23T18:46:56.271Z,3.20
2023-05-23T18:49:23.170Z,3.70
2023-05-23T18:51:51.789Z,3.10
2023-05-23T18:54:18.701Z,3.20
2023-05-23T18:56:45.683Z,3.73
2023-05-23T18:59:14.582Z,3.50
2023-05-23T19:01:41.562Z,3.30
2023-05-23T19:04:08.775Z,3.67
2023-05-23T19:06:35.785Z,3.20
2023-05-23T19:09:07.051Z,3.53
2023-05-23T19:11:33.900Z,3.90
2023-05-23T19:14:00.799Z,4.03
2023-05-23T19:16:27.742Z,3.50
2023-05-23T19:18:54.613Z,3.67
2023-05-23T19:21:22.044Z,3.20
2023-05-23T19:23:48.924Z,4.20
2023-05-23T19:26:18.285Z,3.40
2023-05-23T19:28:45.366Z,3.60
2023-05-23T19:31:12.512Z,4.13
2023-05-23T19:33:39.393Z,4.03
2023-05-23T19:36:06.568Z,3.47
2023-05-23T19:38:33.430Z,3.53
2023-05-23T19:41:00.288Z,3.50
2023-05-23T19:43:27.157Z,4.33
2023-05-23T19:45:54.115Z,3.83
2023-05-23T19:48:21.051Z,3.87
2023-05-23T19:50:48.003Z,3.87
2023-05-23T19:53:14.944Z,3.63
2023-05-23T19:55:42.815Z,3.57
2023-05-23T19:58:09.670Z,4.10
2023-05-23T20:00:36.538Z,4.10
2023-05-23T20:03:04.181Z,3.40
2023-05-23T20:05:31.205Z,4.70
2023-05-23T20:07:58.048Z,4.23
2023-05-23T20:10:25.459Z,3.93
2023-05-23T20:12:52.358Z,4.50
2023-05-23T20:15:31.370Z,3.90
2023-05-23T20:18:06.711Z,4.20
2023-05-23T20:20:33.905Z,4.50
2023-05-23T20:23:00.796Z,4.47
2023-05-23T20:25:28.594Z,4.40
2023-05-23T20:27:58.658Z,5.20
2023-05-23T20:30:25.644Z,4.70
2023-05-23T20:32:54.238Z,4.77
2023-05-23T20:35:22.589Z,5.60
2023-05-23T20:37:53.607Z,4.40
2023-05-23T20:40:22.363Z,4.83
2023-05-23T20:42:49.950Z,4.70
2023-05-23T20:45:16.920Z,4.67
2023-05-23T20:47:43.905Z,5.10
2023-05-23T20:50:12.805Z,4.93
2023-05-23T20:52:42.755Z,4.83
2023-05-23T20:55:10.940Z,4.80
2023-05-23T20:57:38.138Z,4.87
2023-05-23T21:00:14.504Z,4.40
2023-05-23T21:02:42.189Z,5.20
2023-05-23T21:05:10.274Z,5.60
2023-05-23T21:07:37.292Z,4.97
2023-05-23T21:10:04.591Z,5.50
2023-05-23T21:12:31.479Z,5.23
2023-05-23T21:14:58.630Z,4.83
2023-05-23T21:17:26.052Z,4.77
2023-05-23T21:19:53.031Z,4.80
2023-05-23T21:22:19.935Z,5.07
2023-05-23T21:24:46.780Z,4.93
2023-05-23T21:27:13.699Z,5.57
2023-05-23T21:29:40.609Z,4.90
2023-05-23T21:32:07.522Z,4.90
2023-05-23T21:34:34.427Z,5.07
2023-05-23T21:37:01.359Z,4.80
2023-05-23T21:39:39.149Z,5.77
2023-05-23T21:42:14.322Z,5.50
2023-05-23T21:44:41.242Z,5.60
2023-05-23T21:47:08.301Z,5.37
2023-05-23T21:49:35.606Z,5.07
2023-05-23T21:52:03.025Z,5.70
2023-05-23T21:54:30.181Z,5.87
2023-05-23T21:56:57.260Z,5.60
2023-05-23T21:59:24.423Z,5.20
2023-05-23T22:01:51.696Z,5.63
2023-05-23T22:04:20.213Z,5.53
2023-05-23T22:06:47.515Z,5.60
2023-05-23T22:09:15.470Z,5.67
2023-05-23T22:11:43.125Z,5.20
2023-05-23T22:14:10.741Z,5.27
2023-05-23T22:16:40.950Z,5.80
2023-05-23T22:19:12.675Z,6.17
2023-05-23T22:21:39.733Z,5.40
2023-05-23T22:24:06.808Z,5.57
2023-05-23T22:26:33.729Z,5.27
2023-05-23T22:29:00.776Z,6.17
2023-05-23T22:31:29.032Z,5.60
2023-05-23T22:33:56.304Z,5.10
2023-05-23T22:36:23.474Z,5.30
2023-05-23T22:38:50.754Z,5.80
2023-05-23T22:41:17.885Z,6.00
2023-05-23T22:43:45.043Z,5.27
2023-05-23T22:46:12.019Z,5.77
2023-05-23T22:48:39.227Z,5.67
2023-05-23T22:51:08.022Z,5.67
2023-05-23T22:53:35.091Z,5.20
2023-05-23T22:56:02.812Z,5.80
2023-05-23T22:58:29.792Z,5.27
2023-05-23T23:00:56.821Z,5.20
2023-05-23T23:03:23.971Z,5.50
2023-05-23T23:05:50.945Z,5.77
2023-05-23T23:08:19.418Z,5.57
2023-05-23T23:10:46.629Z,6.07
2023-05-23T23:13:16.520Z,5.60
2023-05-23T23:15:44.101Z,5.93
2023-05-23T23:18:13.503Z,5.90
2023-05-23T23:20:41.564Z,5.70
2023-05-23T23:23:08.783Z,5.50
2023-05-23T23:25:36.626Z,5.70
2023-05-23T23:28:03.880Z,5.97
2023-05-23T23:30:30.979Z,5.73
2023-05-23T23:32:58.149Z,6.13
2023-05-23T23:35:25.144Z,5.20
2023-05-23T23:37:52.246Z,5.50
2023-05-23T23:40:19.150Z,5.93
2023-05-23T23:42:46.060Z,4.87
2023-05-23T23:45:13.021Z,5.57
2023-05-23T23:47:40.017Z,5.63
2023-05-23T23:50:07.668Z,5.40
2023-05-23T23:52:37.231Z,5.60
2023-05-23T23:55:04.762Z,6.37
2023-05-23T23:57:31.713Z,5.27
2023-05-23T23:59:58.698Z,5.30
